KOAR/OAR METAR and TAF weather

Enter ICAO airport designator
Station Type Date Time Source
KOAR METAR 2022/08/16 18:35 UTC NOAA

KOAR 161835Z AUTO 29010KT 10SM CLR M12/M16 A2984 RMK AO2 PWINO


Station Type Date Time Source
KOAR Decoded METAR 2022/08/16 18:35 UTC NOAA

Station name not available
Aug 16, 2022 - 02:35 PM EDT / 2022.08.16 1835 UTC
Wind: from the WNW (290 degrees) at 12 MPH (10 KT):0
Visibility: 10 mile(s):0
Sky conditions: clear
Temperature: 10 F (-12 C)
Windchill: -4 F (-20 C):1
Dew Point: 3 F (-16 C)
Relative Humidity: 72%
Pressure (altimeter): 29.84 in. Hg (1010 hPa)
ob: KOAR 161835Z AUTO 29010KT 10SM CLR M12/M16 A2984 RMK AO2 PWINO
cycle: 18

Station Type Date Time Source
KOAR TAF UTC NOAA

Error!

Example: see airport list